createdAt,value
2022-10-07T00:01:00.314Z,4.47
2022-10-07T00:03:28.601Z,5.82
2022-10-07T00:06:09.028Z,3.72
2022-10-07T00:08:37.095Z,4.95
2022-10-07T00:11:10.640Z,7.40
2022-10-07T00:13:41.471Z,3.35
2022-10-07T00:16:14.596Z,4.13
2022-10-07T00:18:42.163Z,3.75
2022-10-07T00:21:12.142Z,2.63
2022-10-07T00:23:40.035Z,6.65
2022-10-07T00:26:08.483Z,3.67
2022-10-07T00:28:36.745Z,6.72
2022-10-07T00:31:09.709Z,4.07
2022-10-07T00:33:39.613Z,4.05
2022-10-07T00:36:16.120Z,4.78
2022-10-07T00:38:42.905Z,5.78
2022-10-07T00:41:17.520Z,3.92
2022-10-07T00:43:44.218Z,5.40
2022-10-07T00:46:24.438Z,3.38
2022-10-07T00:48:51.431Z,3.53
2022-10-07T00:51:18.732Z,4.32
2022-10-07T00:53:49.160Z,5.35
2022-10-07T00:56:17.899Z,3.35
2022-10-07T00:58:47.943Z,4.72
2022-10-07T01:01:14.633Z,5.22
2022-10-07T01:03:42.286Z,6.03
2022-10-07T01:06:10.408Z,6.00
2022-10-07T01:08:38.917Z,5.88
2022-10-07T01:11:17.654Z,5.28
2022-10-07T01:14:22.638Z,4.32
2022-10-07T01:17:00.748Z,5.07
2022-10-07T01:19:53.257Z,4.90
2022-10-07T01:22:34.111Z,2.93
2022-10-07T01:25:24.710Z,4.40
2022-10-07T01:27:58.657Z,3.85
2022-10-07T01:30:25.486Z,3.70
2022-10-07T01:32:59.790Z,5.70
2022-10-07T01:35:33.559Z,5.78
2022-10-07T01:38:05.973Z,4.22
2022-10-07T01:40:44.331Z,4.95
2022-10-07T01:43:15.773Z,4.85
2022-10-07T01:45:43.255Z,4.43
2022-10-07T01:48:10.262Z,7.03
2022-10-07T01:50:38.225Z,4.03
2022-10-07T01:53:23.813Z,5.30
2022-10-07T01:55:57.781Z,3.13
2022-10-07T01:58:53.405Z,5.13
2022-10-07T02:01:48.381Z,4.82
2022-10-07T02:04:18.897Z,6.45
2022-10-07T02:07:24.220Z,5.43
2022-10-07T02:10:08.114Z,6.05
2022-10-07T02:12:42.797Z,7.22
2022-10-07T02:15:26.956Z,3.80
2022-10-07T02:18:01.228Z,8.02
2022-10-07T02:20:33.235Z,6.03
2022-10-07T02:23:02.394Z,3.92
2022-10-07T02:25:35.416Z,4.05
2022-10-07T02:28:05.574Z,6.40
2022-10-07T02:30:36.241Z,7.43
2022-10-07T02:33:06.374Z,4.07
2022-10-07T02:35:47.631Z,3.70
2022-10-07T02:38:16.741Z,4.40
2022-10-07T02:40:54.411Z,2.70
2022-10-07T02:43:47.585Z,3.88
2022-10-07T02:46:32.003Z,7.57
2022-10-07T02:49:05.997Z,5.07
2022-10-07T02:51:40.842Z,5.28
2022-10-07T02:54:07.565Z,3.40
2022-10-07T02:56:37.801Z,4.63
2022-10-07T02:59:08.234Z,7.78
2022-10-07T03:01:41.390Z,4.05
2022-10-07T03:04:08.344Z,4.90
2022-10-07T03:06:36.372Z,5.55
2022-10-07T03:09:04.319Z,4.22
2022-10-07T03:11:31.012Z,3.65
2022-10-07T03:13:58.503Z,2.47
2022-10-07T03:16:25.918Z,3.85
2022-10-07T03:18:53.179Z,4.97
2022-10-07T03:21:25.664Z,8.38
2022-10-07T03:23:55.347Z,3.92
2022-10-07T03:26:26.208Z,3.35
2022-10-07T03:28:53.635Z,8.32
2022-10-07T03:31:20.726Z,5.43
2022-10-07T03:33:50.199Z,5.43
2022-10-07T03:36:18.260Z,4.75
2022-10-07T03:38:46.971Z,6.60
2022-10-07T03:41:14.298Z,4.80
2022-10-07T03:43:40.975Z,3.90
2022-10-07T03:46:09.609Z,3.90
2022-10-07T03:48:37.829Z,7.13
2022-10-07T03:51:04.681Z,2.80
2022-10-07T03:53:34.533Z,5.93
2022-10-07T03:56:01.905Z,3.45
2022-10-07T03:58:30.225Z,4.78
2022-10-07T04:01:16.236Z,2.78
2022-10-07T04:03:49.201Z,4.53
2022-10-07T04:06:16.011Z,4.43
2022-10-07T04:08:44.968Z,4.93
2022-10-07T04:11:13.051Z,3.95
2022-10-07T04:13:42.163Z,4.60
2022-10-07T04:16:10.210Z,3.53
2022-10-07T04:18:37.728Z,6.00
2022-10-07T04:21:05.287Z,4.20
2022-10-07T04:23:35.143Z,2.88
2022-10-07T04:26:06.881Z,4.82
2022-10-07T04:28:33.711Z,5.30
2022-10-07T04:31:08.840Z,4.80
2022-10-07T04:33:40.999Z,6.07
2022-10-07T04:36:09.747Z,7.72
2022-10-07T04:38:50.494Z,5.18
2022-10-07T04:41:19.653Z,5.25
2022-10-07T04:43:53.210Z,4.38
2022-10-07T04:46:23.954Z,5.18
2022-10-07T04:48:57.100Z,6.25
2022-10-07T04:51:26.020Z,3.08
2022-10-07T04:53:57.328Z,3.75
2022-10-07T04:56:31.519Z,4.68
2022-10-07T04:58:59.498Z,4.13
2022-10-07T05:01:26.315Z,3.50
2022-10-07T05:03:54.227Z,3.78
2022-10-07T05:06:20.990Z,3.05
2022-10-07T05:08:48.671Z,5.28
2022-10-07T05:11:15.400Z,6.90
2022-10-07T05:13:48.983Z,3.92
2022-10-07T05:16:16.446Z,5.05
2022-10-07T05:18:43.698Z,6.65
2022-10-07T05:21:12.670Z,3.95
2022-10-07T05:23:43.842Z,6.43
2022-10-07T05:26:15.318Z,5.60
2022-10-07T05:28:48.644Z,8.75
2022-10-07T05:31:19.127Z,6.10
2022-10-07T05:33:50.177Z,5.03
2022-10-07T05:36:20.197Z,6.95
2022-10-07T05:38:48.044Z,5.05
2022-10-07T05:41:15.005Z,7.28
2022-10-07T05:43:43.304Z,8.38
2022-10-07T05:46:16.423Z,6.05
2022-10-07T05:48:48.994Z,9.80
2022-10-07T05:51:17.220Z,7.20
2022-10-07T05:53:45.570Z,9.00
2022-10-07T05:56:16.497Z,8.32
2022-10-07T05:58:43.451Z,9.70
2022-10-07T06:01:22.170Z,10.95
2022-10-07T06:03:51.323Z,6.90
2022-10-07T06:06:19.540Z,7.22
2022-10-07T06:08:50.715Z,8.30
2022-10-07T06:11:37.958Z,8.32
2022-10-07T06:14:06.117Z,8.45
2022-10-07T06:16:33.038Z,7.93
2022-10-07T06:19:00.246Z,9.77
2022-10-07T06:21:30.156Z,10.15
2022-10-07T06:24:01.102Z,8.75
2022-10-07T06:29:04.529Z,10.32
2022-10-07T06:31:32.471Z,11.25
2022-10-07T06:34:02.847Z,10.73
2022-10-07T06:36:30.663Z,10.15
2022-10-07T06:38:58.128Z,8.10
2022-10-07T06:41:30.775Z,6.25
2022-10-07T06:44:20.583Z,8.82
2022-10-07T06:46:47.291Z,8.55
2022-10-07T06:49:14.244Z,6.55
2022-10-07T06:51:40.897Z,5.45
2022-10-07T06:54:08.266Z,7.03
2022-10-07T06:56:35.887Z,6.25
2022-10-07T06:59:03.320Z,5.28
2022-10-07T07:01:38.185Z,7.28
2022-10-07T07:04:05.154Z,6.03
2022-10-07T07:06:36.411Z,7.53
2022-10-07T07:09:05.318Z,5.80
2022-10-07T07:11:38.235Z,9.27
2022-10-07T07:14:12.362Z,5.38
2022-10-07T07:16:42.292Z,6.00
2022-10-07T07:19:12.082Z,7.57
2022-10-07T07:21:41.011Z,7.22
2022-10-07T07:24:10.678Z,4.70
2022-10-07T07:26:39.504Z,7.10
2022-10-07T07:29:08.068Z,6.18
2022-10-07T07:31:42.750Z,5.88
2022-10-07T07:34:11.507Z,6.07
2022-10-07T07:36:43.960Z,7.32
2022-10-07T07:39:13.795Z,6.43
2022-10-07T07:41:46.609Z,5.85
2022-10-07T07:44:18.053Z,6.68
2022-10-07T07:46:51.183Z,6.20
2022-10-07T07:49:21.157Z,5.07
2022-10-07T07:51:48.307Z,5.80
2022-10-07T07:54:21.335Z,5.03
2022-10-07T07:56:49.173Z,5.95
2022-10-07T07:59:18.134Z,7.22
2022-10-07T08:01:47.445Z,5.78
2022-10-07T08:04:15.328Z,4.40
2022-10-07T08:06:42.929Z,7.03
2022-10-07T08:09:09.874Z,7.15
2022-10-07T08:11:37.822Z,5.20
2022-10-07T08:14:04.769Z,7.13
2022-10-07T08:16:34.604Z,4.30
2022-10-07T08:19:01.372Z,5.80
2022-10-07T08:21:33.010Z,4.80
2022-10-07T08:24:03.905Z,5.38
2022-10-07T08:26:34.783Z,6.28
2022-10-07T08:29:04.720Z,4.07
2022-10-07T08:31:32.022Z,5.68
2022-10-07T08:34:00.596Z,4.63
2022-10-07T08:36:29.752Z,4.03
2022-10-07T08:38:56.826Z,7.40
2022-10-07T08:41:28.283Z,4.95
2022-10-07T08:43:58.168Z,5.40
2022-10-07T08:46:32.471Z,6.50
2022-10-07T08:51:34.444Z,4.93
2022-10-07T08:54:01.289Z,7.93
2022-10-07T08:56:29.399Z,4.78
2022-10-07T08:59:15.983Z,8.15
2022-10-07T09:01:45.602Z,8.30
2022-10-07T09:04:24.505Z,7.10
2022-10-07T09:06:58.892Z,9.10
2022-10-07T09:09:32.596Z,5.88
2022-10-07T09:12:02.084Z,7.68
2022-10-07T09:14:30.632Z,4.85
2022-10-07T09:17:03.176Z,6.13
2022-10-07T09:19:36.630Z,6.80
2022-10-07T09:22:31.693Z,8.95
2022-10-07T09:25:22.996Z,7.07
2022-10-07T09:27:52.114Z,7.30
2022-10-07T09:30:20.097Z,10.43
2022-10-07T09:32:49.461Z,7.20
2022-10-07T09:35:20.111Z,9.80
2022-10-07T09:37:58.029Z,6.07
2022-10-07T09:40:27.626Z,8.50
2022-10-07T09:42:54.984Z,6.05
2022-10-07T09:45:26.443Z,6.28
2022-10-07T09:48:16.023Z,7.60
2022-10-07T09:50:44.804Z,8.70
2022-10-07T09:53:29.026Z,7.18
2022-10-07T09:55:55.883Z,8.82
2022-10-07T09:58:30.569Z,9.70
2022-10-07T10:00:59.686Z,7.97
2022-10-07T10:03:31.798Z,8.10
2022-10-07T10:06:04.262Z,7.55
2022-10-07T10:08:34.391Z,12.40
2022-10-07T10:11:03.959Z,9.65
2022-10-07T10:13:30.711Z,6.97
2022-10-07T10:15:58.435Z,6.78
2022-10-07T10:18:41.272Z,9.93
2022-10-07T10:21:20.670Z,8.27
2022-10-07T10:24:11.635Z,7.28
2022-10-07T10:27:13.025Z,7.03
2022-10-07T10:29:52.033Z,11.32
2022-10-07T10:32:39.323Z,9.63
2022-10-07T10:35:19.653Z,9.50
2022-10-07T10:38:02.338Z,8.30
2022-10-07T10:40:41.275Z,9.10
2022-10-07T10:43:25.906Z,7.45
2022-10-07T10:46:13.872Z,8.40
2022-10-07T10:49:25.518Z,11.18
2022-10-07T10:52:13.485Z,9.40
2022-10-07T10:54:55.606Z,9.38
2022-10-07T10:57:46.359Z,9.52
2022-10-07T11:00:19.326Z,9.68
2022-10-07T11:03:13.893Z,8.57
2022-10-07T11:05:42.628Z,6.95
2022-10-07T11:08:19.905Z,7.90
2022-10-07T11:10:48.751Z,13.38
2022-10-07T11:13:40.900Z,7.75
2022-10-07T11:19:04.646Z,12.23
2022-10-07T11:21:57.183Z,8.82
2022-10-07T11:24:40.677Z,10.70
2022-10-07T11:27:14.980Z,9.90
2022-10-07T11:30:00.623Z,8.23
2022-10-07T11:32:56.907Z,12.90
2022-10-07T11:35:34.421Z,9.60
2022-10-07T11:38:10.185Z,10.35
2022-10-07T11:40:49.863Z,11.05
2022-10-07T11:43:28.511Z,12.60
2022-10-07T11:46:01.207Z,9.13
2022-10-07T11:48:39.178Z,8.07
2022-10-07T11:51:08.772Z,9.50
2022-10-07T11:53:39.272Z,10.43
2022-10-07T11:56:16.940Z,7.43
2022-10-07T11:58:44.745Z,11.10
2022-10-07T12:01:28.578Z,9.13
2022-10-07T12:04:00.392Z,10.10
2022-10-07T12:08:54.614Z,11.82
2022-10-07T12:11:24.730Z,8.90
2022-10-07T12:13:53.920Z,7.78
2022-10-07T12:16:23.743Z,7.95
2022-10-07T12:19:10.820Z,8.68
2022-10-07T12:22:03.823Z,12.85
2022-10-07T12:24:36.171Z,12.40
2022-10-07T12:27:07.512Z,10.98
2022-10-07T12:29:45.255Z,13.65
2022-10-07T12:32:50.416Z,11.80
2022-10-07T12:35:29.406Z,12.15
2022-10-07T12:38:23.888Z,11.98
2022-10-07T12:40:59.691Z,10.45
2022-10-07T12:43:46.005Z,10.32
2022-10-07T12:46:17.223Z,9.77
2022-10-07T12:48:56.005Z,12.00
2022-10-07T12:51:28.217Z,11.23
2022-10-07T12:53:58.598Z,11.82
2022-10-07T12:56:29.025Z,11.98
2022-10-07T12:59:35.289Z,12.07
2022-10-07T13:02:02.148Z,12.30
2022-10-07T13:04:31.903Z,14.52
2022-10-07T13:07:17.298Z,13.82
2022-10-07T13:10:01.998Z,13.07
2022-10-07T13:12:45.047Z,12.15
2022-10-07T13:15:41.368Z,11.75
2022-10-07T13:18:32.613Z,12.40
2022-10-07T13:21:08.349Z,17.27
2022-10-07T13:23:36.559Z,14.10
2022-10-07T13:26:03.755Z,15.57
2022-10-07T13:28:45.357Z,12.80
2022-10-07T13:31:20.428Z,14.80
2022-10-07T13:33:48.405Z,12.05
2022-10-07T13:36:33.065Z,13.15
2022-10-07T13:39:18.072Z,14.05
2022-10-07T13:41:47.758Z,13.88
2022-10-07T13:44:18.362Z,16.10
2022-10-07T13:46:55.938Z,14.25
2022-10-07T13:49:30.543Z,15.55
2022-10-07T13:52:00.924Z,19.27
2022-10-07T13:54:30.616Z,15.90
2022-10-07T13:56:57.862Z,20.25
2022-10-07T13:59:25.139Z,17.23
2022-10-07T14:01:54.524Z,16.05
2022-10-07T14:04:29.331Z,15.30
2022-10-07T14:07:11.151Z,17.02
2022-10-07T14:09:43.434Z,20.98
2022-10-07T14:12:25.534Z,18.52
2022-10-07T14:17:33.071Z,20.05
2022-10-07T14:20:05.527Z,18.85
2022-10-07T14:22:38.074Z,18.67
2022-10-07T14:25:15.836Z,18.77
2022-10-07T14:27:55.644Z,21.42
2022-10-07T14:30:56.448Z,20.63
2022-10-07T14:33:53.759Z,22.98
2022-10-07T14:36:22.415Z,19.35
2022-10-07T14:38:51.539Z,19.67
2022-10-07T14:41:22.681Z,20.92
2022-10-07T14:43:52.244Z,19.47
2022-10-07T14:46:25.403Z,18.88
2022-10-07T14:48:53.944Z,19.42
2022-10-07T14:51:28.310Z,22.58
2022-10-07T14:54:03.298Z,20.77
2022-10-07T14:56:32.486Z,20.48
2022-10-07T14:58:59.691Z,17.17
2022-10-07T15:01:28.455Z,18.88
2022-10-07T15:03:59.145Z,17.75
2022-10-07T15:06:26.242Z,17.52
2022-10-07T15:08:52.958Z,18.85
2022-10-07T15:11:21.872Z,18.90
2022-10-07T15:13:49.890Z,21.27
2022-10-07T15:16:23.078Z,17.88
2022-10-07T15:18:52.835Z,19.70
2022-10-07T15:21:22.202Z,17.55
2022-10-07T15:23:53.551Z,18.13
2022-10-07T15:26:23.686Z,19.25
2022-10-07T15:28:56.444Z,19.13
2022-10-07T15:31:26.120Z,17.60
2022-10-07T15:33:57.667Z,19.45
2022-10-07T15:36:26.681Z,20.17
2022-10-07T15:38:53.414Z,20.50
2022-10-07T15:41:30.956Z,19.23
2022-10-07T15:44:22.378Z,24.45
2022-10-07T15:46:53.460Z,21.57
2022-10-07T15:49:22.256Z,21.92
2022-10-07T15:51:49.082Z,23.60
2022-10-07T15:54:16.477Z,24.33
2022-10-07T15:56:44.415Z,21.55
2022-10-07T15:59:11.268Z,22.25
2022-10-07T16:01:38.365Z,20.58
2022-10-07T16:04:06.190Z,24.92
2022-10-07T16:06:35.622Z,19.98
2022-10-07T16:09:03.558Z,19.65
2022-10-07T16:11:33.225Z,22.15
2022-10-07T16:14:02.262Z,20.90
2022-10-07T16:16:33.382Z,24.17
2022-10-07T16:19:01.287Z,20.27
2022-10-07T16:21:31.220Z,22.63
2022-10-07T16:24:06.485Z,21.83
2022-10-07T16:26:35.989Z,26.10
2022-10-07T16:29:23.858Z,22.73
2022-10-07T16:31:55.928Z,21.25
2022-10-07T16:34:25.827Z,19.90
2022-10-07T16:36:52.705Z,19.95
2022-10-07T16:39:20.838Z,19.58
2022-10-07T16:41:49.113Z,22.52
2022-10-07T16:44:16.099Z,19.98
2022-10-07T16:46:43.408Z,18.02
2022-10-07T16:49:15.891Z,18.40
2022-10-07T16:51:42.833Z,20.92
2022-10-07T16:54:13.096Z,20.77
2022-10-07T16:56:42.332Z,20.35
2022-10-07T16:59:10.967Z,21.70
2022-10-07T17:01:39.512Z,26.30
2022-10-07T17:04:07.241Z,18.50
2022-10-07T17:06:34.594Z,26.00
2022-10-07T17:09:04.619Z,21.58
2022-10-07T17:11:36.691Z,22.20
2022-10-07T17:16:46.137Z,23.50
2022-10-07T17:19:17.833Z,19.38
2022-10-07T17:21:46.411Z,19.17
2022-10-07T17:24:13.674Z,21.52
2022-10-07T17:26:40.957Z,22.15
2022-10-07T17:29:12.120Z,19.17
2022-10-07T17:31:41.288Z,20.23
2022-10-07T17:34:10.084Z,20.73
2022-10-07T17:36:36.995Z,18.50
2022-10-07T17:39:04.334Z,18.20
2022-10-07T17:41:33.849Z,21.20
2022-10-07T17:44:03.665Z,16.52
2022-10-07T17:46:33.294Z,19.85
2022-10-07T17:49:01.985Z,22.10
2022-10-07T17:51:31.523Z,22.67
2022-10-07T17:54:00.341Z,19.50
2022-10-07T17:56:28.925Z,19.15
2022-10-07T17:58:55.770Z,18.67
2022-10-07T18:01:27.856Z,15.13
2022-10-07T18:06:24.762Z,21.25
2022-10-07T18:08:51.503Z,15.95
2022-10-07T18:11:18.208Z,21.88
2022-10-07T18:14:05.075Z,18.67
2022-10-07T18:16:33.403Z,18.02
2022-10-07T18:19:00.420Z,19.17
2022-10-07T18:21:30.651Z,17.17
2022-10-07T18:23:58.139Z,18.13
2022-10-07T18:26:24.899Z,22.90
2022-10-07T18:28:51.737Z,22.05
2022-10-07T18:31:19.245Z,18.15
2022-10-07T18:33:46.421Z,21.65
2022-10-07T18:36:19.420Z,18.05
2022-10-07T18:38:46.528Z,19.83
2022-10-07T18:41:15.132Z,20.58
2022-10-07T18:43:43.996Z,19.98
2022-10-07T18:46:14.083Z,20.05
2022-10-07T18:48:43.298Z,18.63
2022-10-07T18:51:10.858Z,18.90
2022-10-07T18:53:39.309Z,19.63
2022-10-07T18:56:11.844Z,18.58
2022-10-07T18:58:44.071Z,18.58
2022-10-07T19:01:14.316Z,20.23
2022-10-07T19:03:41.259Z,19.10
2022-10-07T19:06:14.326Z,18.92
2022-10-07T19:08:41.402Z,19.38
2022-10-07T19:11:20.597Z,15.95
2022-10-07T19:13:50.463Z,20.25
2022-10-07T19:16:35.108Z,20.08
2022-10-07T19:19:05.643Z,24.92
2022-10-07T19:21:32.798Z,18.30
2022-10-07T19:24:03.455Z,21.60
2022-10-07T19:26:42.831Z,22.52
2022-10-07T19:29:10.900Z,36.38
2022-10-07T19:31:43.549Z,30.05
2022-10-07T19:34:17.248Z,21.70
2022-10-07T19:36:48.306Z,23.40
2022-10-07T19:39:20.768Z,24.25
2022-10-07T19:41:48.195Z,21.67
2022-10-07T19:44:15.662Z,18.70
2022-10-07T19:46:42.622Z,22.05
2022-10-07T19:49:09.504Z,22.45
2022-10-07T19:51:37.815Z,21.88
2022-10-07T19:54:10.136Z,24.17
2022-10-07T19:56:38.256Z,24.00
2022-10-07T19:59:07.607Z,25.13
2022-10-07T20:01:37.299Z,41.83
2022-10-07T20:04:06.730Z,37.33
2022-10-07T20:06:36.974Z,28.65
2022-10-07T20:09:05.607Z,25.92
2022-10-07T20:11:32.829Z,24.95
2022-10-07T20:14:00.072Z,23.10
2022-10-07T20:16:28.000Z,25.23
2022-10-07T20:19:05.414Z,26.98
2022-10-07T20:21:35.797Z,23.85
2022-10-07T20:24:03.316Z,25.45
2022-10-07T20:26:32.817Z,24.15
2022-10-07T20:29:02.262Z,26.45
2022-10-07T20:31:35.263Z,23.83
2022-10-07T20:34:03.182Z,29.23
2022-10-07T20:36:33.509Z,23.67
2022-10-07T20:39:27.525Z,20.65
2022-10-07T20:42:13.262Z,26.33
2022-10-07T20:44:40.037Z,27.40
2022-10-07T20:47:08.718Z,29.77
2022-10-07T20:49:38.644Z,22.77
2022-10-07T20:52:07.913Z,25.48
2022-10-07T20:54:34.697Z,23.05
2022-10-07T20:57:01.536Z,25.73
2022-10-07T20:59:30.040Z,24.17
2022-10-07T21:01:57.194Z,26.30
2022-10-07T21:04:28.646Z,23.92
2022-10-07T21:06:58.990Z,24.60
2022-10-07T21:09:26.609Z,27.13
2022-10-07T21:11:57.034Z,24.70
2022-10-07T21:14:24.185Z,25.10
2022-10-07T21:16:52.480Z,24.25
2022-10-07T21:19:19.264Z,24.05
2022-10-07T21:21:46.102Z,20.60
2022-10-07T21:24:13.310Z,20.27
2022-10-07T21:26:40.112Z,20.02
2022-10-07T21:29:09.689Z,19.73
2022-10-07T21:31:37.031Z,16.70
2022-10-07T21:34:07.902Z,16.40
2022-10-07T21:36:37.887Z,17.05
2022-10-07T21:39:06.153Z,17.40
2022-10-07T21:41:35.201Z,19.80
2022-10-07T21:44:03.986Z,25.38
2022-10-07T21:46:32.705Z,20.23
2022-10-07T21:48:59.818Z,27.67
2022-10-07T21:51:27.787Z,22.27
2022-10-07T21:53:58.180Z,21.33
2022-10-07T21:56:27.067Z,24.73
2022-10-07T21:58:54.258Z,22.65
2022-10-07T22:01:23.525Z,20.95
2022-10-07T22:04:16.030Z,24.15
2022-10-07T22:09:29.030Z,24.55
2022-10-07T22:11:57.574Z,19.42
2022-10-07T22:14:24.864Z,25.75
2022-10-07T22:16:51.948Z,23.27
2022-10-07T22:19:18.728Z,24.27
2022-10-07T22:21:45.999Z,20.17
2022-10-07T22:24:14.260Z,21.15
2022-10-07T22:26:46.570Z,24.05
2022-10-07T22:31:52.900Z,20.13
2022-10-07T22:34:38.727Z,21.48
2022-10-07T22:37:06.193Z,28.42
2022-10-07T22:39:32.860Z,23.08
2022-10-07T22:42:01.050Z,23.73
2022-10-07T22:44:28.486Z,22.58
2022-10-07T22:46:56.880Z,23.05
2022-10-07T22:49:27.297Z,26.20
2022-10-07T22:51:58.221Z,23.05
2022-10-07T22:54:26.000Z,24.52
2022-10-07T22:56:52.647Z,22.63
2022-10-07T22:59:19.809Z,21.55
2022-10-07T23:01:47.064Z,24.33
2022-10-07T23:04:13.817Z,25.90
2022-10-07T23:06:40.507Z,22.95
2022-10-07T23:09:07.167Z,22.75
2022-10-07T23:11:33.894Z,21.20
2022-10-07T23:14:00.581Z,24.63
2022-10-07T23:16:29.852Z,20.63
2022-10-07T23:18:56.922Z,25.70
2022-10-07T23:21:25.898Z,25.90
2022-10-07T23:24:02.860Z,28.52
2022-10-07T23:26:31.872Z,18.98
2022-10-07T23:29:00.553Z,20.65
2022-10-07T23:31:29.944Z,25.45
2022-10-07T23:33:58.689Z,21.98
2022-10-07T23:36:26.800Z,21.58
2022-10-07T23:38:54.205Z,24.92
2022-10-07T23:41:26.146Z,22.75
2022-10-07T23:43:55.441Z,24.85
2022-10-07T23:46:24.671Z,25.55
2022-10-07T23:48:53.393Z,21.95
2022-10-07T23:51:22.903Z,22.25
2022-10-07T23:53:50.029Z,23.48
2022-10-07T23:56:18.684Z,22.15
2022-10-07T23:58:45.520Z,23.70
